Green Harbor, Massachusetts
Current Conditions -  °F | °C
As of 11:10 AM on Friday 24 Oct 2014 (Local Time) from KGHG Reporting Station
Overcast Overcast  
Wind Chill: 54°   Ceiling: 1400
Heat Index: 54°   Visibility: 10mi
Dew Point: 48°   Wind: 7mph
Humidity: 82%   Direction: 340°NNW
Pressure: 29.71"   Gusts: 16mph
Location:  42.08°N, 70.65°W
Report Text: KGHG 241510Z AUTO 34006G14KT 010V350 10SM OVC014 12/09 A2971 RMK AO2
Loading
Personal Weather Stations






























Interactive Weather Map
Tropical Storm Tracking
New forecast layout! Learn more

10-Day Weather Forecast

Advertisements
Track Severe Weather on mobile